createdAt,value
2023-03-26T00:01:46.940Z,99031.97
2023-03-26T00:04:19.894Z,99040.50
2023-03-26T00:06:49.176Z,99030.91
2023-03-26T00:09:18.719Z,99029.34
2023-03-26T00:11:47.449Z,99028.78
2023-03-26T00:14:18.012Z,99023.16
2023-03-26T00:16:47.798Z,99012.09
2023-03-26T00:19:17.061Z,99020.75
2023-03-26T00:21:45.640Z,99016.25
2023-03-26T00:24:16.428Z,99019.06
2023-03-26T00:26:48.759Z,98998.72
2023-03-26T00:29:17.799Z,98996.78
2023-03-26T00:31:46.768Z,98993.66
2023-03-26T00:34:18.726Z,98992.97
2023-03-26T00:36:47.622Z,98992.63
2023-03-26T00:39:18.094Z,98993.28
2023-03-26T00:41:46.679Z,98989.91
2023-03-26T00:44:15.215Z,98994.41
2023-03-26T00:46:43.860Z,98994.69
2023-03-26T00:49:15.001Z,99000.03
2023-03-26T00:51:43.724Z,99003.88
2023-03-26T00:54:12.936Z,99011.31
2023-03-26T00:56:41.504Z,99013.19
2023-03-26T00:59:10.093Z,99013.00
2023-03-26T01:01:38.786Z,99018.94
2023-03-26T01:04:32.260Z,99006.81
2023-03-26T01:07:22.037Z,99010.34
2023-03-26T01:09:52.511Z,99004.41
2023-03-26T01:12:26.610Z,99004.41
2023-03-26T01:15:00.945Z,98997.16
2023-03-26T01:17:34.325Z,98997.19
2023-03-26T01:20:20.594Z,98992.31
2023-03-26T01:22:58.387Z,98977.81
2023-03-26T01:25:39.292Z,98975.63
2023-03-26T01:28:12.752Z,98979.97
2023-03-26T01:31:25.364Z,98981.53
2023-03-26T01:34:12.634Z,98983.63
2023-03-26T01:36:58.035Z,98984.47
2023-03-26T01:39:39.103Z,98970.72
2023-03-26T01:42:15.682Z,98984.00
2023-03-26T01:45:14.754Z,98971.16
2023-03-26T01:47:45.825Z,98981.47
2023-03-26T01:50:15.058Z,98985.50
2023-03-26T01:52:43.582Z,98985.03
2023-03-26T01:55:14.465Z,98991.44
2023-03-26T01:57:51.819Z,98979.38
2023-03-26T02:00:36.190Z,98984.72
2023-03-26T02:03:22.591Z,98991.97
2023-03-26T02:06:17.709Z,98982.25
2023-03-26T02:09:08.234Z,98986.03
2023-03-26T02:11:39.527Z,98978.94
2023-03-26T02:14:09.829Z,98990.34
2023-03-26T02:16:38.469Z,98986.72
2023-03-26T02:19:15.868Z,98974.53
2023-03-26T02:21:43.951Z,98980.75
2023-03-26T02:24:11.867Z,98976.59
2023-03-26T02:26:40.550Z,98973.94
2023-03-26T02:29:10.092Z,98981.38
2023-03-26T02:31:38.693Z,98977.88
2023-03-26T02:34:07.356Z,98984.09
2023-03-26T02:36:36.253Z,98989.34
2023-03-26T02:39:05.378Z,98989.56
2023-03-26T02:41:34.601Z,99004.19
2023-03-26T02:44:03.404Z,99002.28
2023-03-26T02:46:32.722Z,99004.22
2023-03-26T02:49:01.412Z,99009.28
2023-03-26T02:51:30.032Z,99008.03
2023-03-26T02:53:57.975Z,99004.59
2023-03-26T02:56:26.696Z,98997.16
2023-03-26T02:58:55.552Z,98999.06
2023-03-26T03:01:24.118Z,98996.41
2023-03-26T03:03:51.924Z,98998.53
2023-03-26T03:06:19.782Z,99001.28
2023-03-26T03:08:48.098Z,98996.00
2023-03-26T03:11:22.327Z,99002.13
2023-03-26T03:13:51.632Z,99003.63
2023-03-26T03:16:20.826Z,99002.84
2023-03-26T03:18:54.929Z,99001.13
2023-03-26T03:21:29.536Z,98998.03
2023-03-26T03:23:59.837Z,98996.69
2023-03-26T03:26:30.068Z,98997.53
2023-03-26T03:28:58.969Z,98987.00
2023-03-26T03:31:28.599Z,98988.72
2023-03-26T03:33:56.408Z,98987.34
2023-03-26T03:36:24.403Z,98993.25
2023-03-26T03:38:52.962Z,98984.22
2023-03-26T03:41:21.507Z,98974.69
2023-03-26T03:43:49.247Z,98987.84
2023-03-26T03:46:17.899Z,98983.88
2023-03-26T03:48:50.056Z,98989.84
2023-03-26T03:51:19.137Z,98988.31
2023-03-26T03:53:48.295Z,98997.03
2023-03-26T03:56:19.409Z,98994.72
2023-03-26T03:58:48.241Z,98986.66
2023-03-26T04:01:17.453Z,98987.44
2023-03-26T04:03:47.038Z,98989.34
2023-03-26T04:06:19.133Z,98985.72
2023-03-26T04:08:47.660Z,98983.56
2023-03-26T04:11:15.725Z,98982.47
2023-03-26T04:13:44.313Z,98988.13
2023-03-26T04:16:13.080Z,98986.75
2023-03-26T04:18:41.875Z,98983.06
2023-03-26T04:21:12.781Z,98993.13
2023-03-26T04:23:40.584Z,99000.03
2023-03-26T04:26:19.992Z,98995.88
2023-03-26T04:29:04.350Z,98987.78
2023-03-26T04:31:32.265Z,98992.34
2023-03-26T04:34:14.973Z,98993.09
2023-03-26T04:36:42.751Z,98998.31
2023-03-26T04:39:13.631Z,98995.47
2023-03-26T04:41:41.647Z,99001.75
2023-03-26T04:44:10.193Z,99015.44
2023-03-26T04:46:38.778Z,99006.66
2023-03-26T04:49:07.430Z,99010.19
2023-03-26T04:51:42.232Z,99007.13
2023-03-26T04:54:24.695Z,99001.44
2023-03-26T04:57:04.485Z,98995.91
2023-03-26T04:59:35.562Z,99002.19
2023-03-26T05:02:08.410Z,99011.56
2023-03-26T05:04:39.829Z,99013.72
2023-03-26T05:07:09.668Z,99013.16
2023-03-26T05:09:38.343Z,99020.31
2023-03-26T05:12:07.099Z,99022.31
2023-03-26T05:14:37.608Z,99024.88
2023-03-26T05:17:06.509Z,99030.13
2023-03-26T05:19:34.302Z,99028.59
2023-03-26T05:22:03.380Z,99024.84
2023-03-26T05:24:31.946Z,99034.06
2023-03-26T05:27:00.617Z,99031.84
2023-03-26T05:29:29.242Z,99025.34
2023-03-26T05:31:57.912Z,99024.28
2023-03-26T05:34:27.368Z,99033.91
2023-03-26T05:36:55.154Z,99035.53
2023-03-26T05:39:26.589Z,99035.75
2023-03-26T05:41:54.554Z,99032.63
2023-03-26T05:44:23.132Z,99034.47
2023-03-26T05:46:51.416Z,99030.59
2023-03-26T05:49:20.171Z,99038.72
2023-03-26T05:51:48.777Z,99032.94
2023-03-26T05:54:17.352Z,99037.53
2023-03-26T05:56:45.364Z,99032.38
2023-03-26T05:59:16.726Z,99038.25
2023-03-26T06:01:45.395Z,99034.31
2023-03-26T06:04:16.220Z,99036.97
2023-03-26T06:06:45.204Z,99031.53
2023-03-26T06:09:13.485Z,99031.44
2023-03-26T06:11:42.117Z,99032.13
2023-03-26T06:14:09.950Z,99040.59
2023-03-26T06:16:38.376Z,99030.13
2023-03-26T06:19:06.324Z,99033.34
2023-03-26T06:21:34.076Z,99039.06
2023-03-26T06:24:01.813Z,99031.13
2023-03-26T06:26:29.595Z,99042.84
2023-03-26T06:28:57.324Z,99048.22
2023-03-26T06:31:25.150Z,99054.59
2023-03-26T06:33:53.470Z,99057.44
2023-03-26T06:36:21.242Z,99046.63
2023-03-26T06:38:49.693Z,99053.59
2023-03-26T06:41:18.352Z,99054.22
2023-03-26T06:43:46.794Z,99057.63
2023-03-26T06:46:15.798Z,99060.25
2023-03-26T06:48:44.460Z,99058.34
2023-03-26T06:51:12.977Z,99062.94
2023-03-26T06:53:41.462Z,99060.47
2023-03-26T06:56:10.618Z,99072.47
2023-03-26T06:58:39.189Z,99063.66
2023-03-26T07:01:08.101Z,99064.69
2023-03-26T07:03:37.740Z,99051.34
2023-03-26T07:06:06.827Z,99053.28
2023-03-26T07:08:35.460Z,99063.03
2023-03-26T07:11:04.087Z,99053.34
2023-03-26T07:13:32.450Z,99064.59
2023-03-26T07:16:00.992Z,99064.00
2023-03-26T07:18:29.535Z,99068.06
2023-03-26T07:20:58.580Z,99072.81
2023-03-26T07:23:27.682Z,99065.03
2023-03-26T07:25:56.598Z,99046.06
2023-03-26T07:28:42.501Z,99037.88
2023-03-26T07:32:35.240Z,99026.75
2023-03-26T07:35:20.864Z,99036.31
2023-03-26T07:38:28.203Z,99022.03
2023-03-26T07:41:31.200Z,99026.53
2023-03-26T07:44:01.859Z,99021.47
2023-03-26T07:46:37.314Z,99017.94
2023-03-26T07:49:06.299Z,99017.91
2023-03-26T07:51:34.509Z,99020.72
2023-03-26T07:54:04.396Z,99014.22
2023-03-26T07:56:59.125Z,99022.84
2023-03-26T07:59:58.020Z,99025.16
2023-03-26T08:03:10.137Z,99028.81
2023-03-26T08:06:12.202Z,99028.28
2023-03-26T08:09:30.274Z,99036.16
2023-03-26T08:12:47.574Z,99027.19
2023-03-26T08:15:54.264Z,99022.03
2023-03-26T08:18:56.691Z,99029.66
2023-03-26T08:21:27.455Z,99036.97
2023-03-26T08:24:27.891Z,99036.56
2023-03-26T08:27:25.534Z,99039.75
2023-03-26T08:30:19.799Z,99035.13
2023-03-26T08:33:05.305Z,99037.69
2023-03-26T08:35:35.532Z,99036.00
2023-03-26T08:38:03.412Z,99032.91
2023-03-26T08:41:08.680Z,99035.94
2023-03-26T08:44:28.634Z,99030.66
2023-03-26T08:47:42.508Z,99028.72
2023-03-26T08:51:13.109Z,99017.47
2023-03-26T08:55:01.134Z,99019.31
2023-03-26T08:57:58.533Z,99020.63
2023-03-26T09:01:25.812Z,99015.84
2023-03-26T09:04:30.012Z,99018.75
2023-03-26T09:07:45.530Z,99017.63
2023-03-26T09:10:46.712Z,99021.09
2023-03-26T09:14:02.068Z,99027.03
2023-03-26T09:17:14.407Z,99016.84
2023-03-26T09:20:09.039Z,99016.84
2023-03-26T09:23:14.648Z,99006.38
2023-03-26T09:25:52.279Z,99000.84
2023-03-26T09:29:05.974Z,98995.09
2023-03-26T09:32:13.962Z,98996.34
2023-03-26T09:35:18.528Z,99005.94
2023-03-26T09:38:55.059Z,99007.44
2023-03-26T09:42:07.061Z,98990.25
2023-03-26T09:44:55.707Z,98996.94
2023-03-26T09:47:41.564Z,98991.72
2023-03-26T09:50:52.753Z,98984.75
2023-03-26T09:53:54.270Z,98990.75
2023-03-26T09:56:50.006Z,98987.09
2023-03-26T10:00:39.219Z,98992.84
2023-03-26T10:03:38.368Z,98993.25
2023-03-26T10:06:45.045Z,98977.13
2023-03-26T10:10:18.849Z,98980.22
2023-03-26T10:13:51.474Z,98977.22
2023-03-26T10:17:05.263Z,98969.72
2023-03-26T10:20:13.264Z,98960.34
2023-03-26T10:23:33.552Z,98961.06
2023-03-26T10:27:08.396Z,98943.31
2023-03-26T10:30:24.112Z,98936.75
2023-03-26T10:33:06.935Z,98922.75
2023-03-26T10:36:32.606Z,98928.16
2023-03-26T10:39:36.760Z,98927.28
2023-03-26T10:42:40.925Z,98916.19
2023-03-26T10:46:12.469Z,98901.97
2023-03-26T10:49:17.361Z,98897.13
2023-03-26T10:52:10.980Z,98894.53
2023-03-26T10:54:57.198Z,98889.97
2023-03-26T10:57:37.990Z,98891.44
2023-03-26T11:00:27.508Z,98891.06
2023-03-26T11:03:19.694Z,98888.78
2023-03-26T11:06:31.553Z,98897.06
2023-03-26T11:09:38.693Z,98915.69
2023-03-26T11:12:26.263Z,98952.56
2023-03-26T11:15:19.599Z,98941.06
2023-03-26T11:18:19.717Z,98922.53
2023-03-26T11:21:23.400Z,98913.22
2023-03-26T11:24:31.754Z,98896.91
2023-03-26T11:27:18.989Z,98879.19
2023-03-26T11:30:22.709Z,98867.31
2023-03-26T11:32:57.731Z,98871.81
2023-03-26T11:35:40.773Z,98858.41
2023-03-26T11:38:29.711Z,98861.41
2023-03-26T11:41:00.801Z,98845.03
2023-03-26T11:43:37.369Z,98838.91
2023-03-26T11:46:16.445Z,98838.78
2023-03-26T11:49:11.308Z,98836.59
2023-03-26T11:51:41.576Z,98827.41
2023-03-26T11:54:12.775Z,98823.91
2023-03-26T11:57:05.852Z,98823.59
2023-03-26T11:59:58.286Z,98812.69
2023-03-26T12:02:35.973Z,98808.44
2023-03-26T12:05:25.047Z,98803.97
2023-03-26T12:08:39.468Z,98790.41
2023-03-26T12:11:12.449Z,98794.00
2023-03-26T12:14:02.995Z,98788.69
2023-03-26T12:16:31.610Z,98789.97
2023-03-26T12:19:20.033Z,98781.41
2023-03-26T12:21:53.086Z,98781.34
2023-03-26T12:24:35.441Z,98780.50
2023-03-26T12:27:25.497Z,98767.31
2023-03-26T12:30:08.711Z,98765.75
2023-03-26T12:32:46.215Z,98752.94
2023-03-26T12:35:30.366Z,98744.06
2023-03-26T12:38:34.118Z,98747.50
2023-03-26T12:44:42.225Z,98723.84
2023-03-26T12:44:55.266Z,98726.56
2023-03-26T12:47:59.882Z,98721.69
2023-03-26T12:50:34.266Z,98723.72
2023-03-26T12:53:25.216Z,98716.03
2023-03-26T12:56:09.623Z,98717.63
2023-03-26T12:59:14.343Z,98708.94
2023-03-26T13:02:20.249Z,98713.38
2023-03-26T13:05:46.595Z,98701.03
2023-03-26T13:09:23.047Z,98696.97
2023-03-26T13:12:43.183Z,98693.41
2023-03-26T13:15:39.645Z,98696.56
2023-03-26T13:18:44.109Z,98691.16
2023-03-26T13:22:01.891Z,98685.66
2023-03-26T13:24:44.665Z,98670.75
2023-03-26T13:27:42.840Z,98666.16
2023-03-26T13:31:11.920Z,98644.56
2023-03-26T13:34:10.541Z,98642.50
2023-03-26T13:37:14.413Z,98635.88
2023-03-26T13:40:17.497Z,98634.47
2023-03-26T13:43:40.815Z,98635.69
2023-03-26T13:46:49.477Z,98621.91
2023-03-26T13:49:52.167Z,98612.97
2023-03-26T13:52:29.319Z,98611.22
2023-03-26T13:55:40.938Z,98599.28
2023-03-26T13:58:13.376Z,98603.53
2023-03-26T14:01:08.285Z,98603.25
2023-03-26T14:04:04.184Z,98604.47
2023-03-26T14:07:27.913Z,98609.50
2023-03-26T14:10:43.610Z,98605.38
2023-03-26T14:13:36.738Z,98595.47
2023-03-26T14:16:45.989Z,98597.13
2023-03-26T14:20:01.491Z,98589.03
2023-03-26T14:23:21.944Z,98586.22
2023-03-26T14:26:13.477Z,98574.91
2023-03-26T14:29:34.728Z,98569.44
2023-03-26T14:32:41.008Z,98572.19
2023-03-26T14:35:41.838Z,98570.31
2023-03-26T14:38:34.345Z,98565.13
2023-03-26T14:41:29.537Z,98570.22
2023-03-26T14:44:18.164Z,98555.00
2023-03-26T14:46:57.840Z,98543.47
2023-03-26T14:50:12.386Z,98548.47
2023-03-26T14:53:01.475Z,98543.84
2023-03-26T14:56:05.949Z,98545.41
2023-03-26T14:59:40.533Z,98535.75
2023-03-26T15:02:45.060Z,98525.09
2023-03-26T15:06:03.866Z,98522.72
2023-03-26T15:09:23.586Z,98514.25
2023-03-26T15:12:36.198Z,98515.97
2023-03-26T15:15:40.931Z,98513.84
2023-03-26T15:18:56.676Z,98505.66
2023-03-26T15:22:17.718Z,98502.16
2023-03-26T15:25:32.505Z,98493.22
2023-03-26T15:28:19.760Z,98481.50
2023-03-26T15:31:55.435Z,98472.59
2023-03-26T15:34:44.290Z,98473.59
2023-03-26T15:37:39.673Z,98465.53
2023-03-26T15:40:48.612Z,98465.63
2023-03-26T15:43:20.825Z,98469.22
2023-03-26T15:46:29.169Z,98462.38
2023-03-26T15:49:33.569Z,98459.41
2023-03-26T15:52:30.217Z,98455.28
2023-03-26T15:55:40.446Z,98453.75
2023-03-26T15:59:06.145Z,98445.97
2023-03-26T16:02:16.432Z,98451.72
2023-03-26T16:05:37.329Z,98444.75
2023-03-26T16:08:53.242Z,98439.00
2023-03-26T16:12:25.151Z,98444.75
2023-03-26T16:15:33.523Z,98440.81
2023-03-26T16:18:11.926Z,98423.19
2023-03-26T16:21:32.741Z,98429.56
2023-03-26T16:24:03.561Z,98422.06
2023-03-26T16:27:15.440Z,98411.66
2023-03-26T16:30:01.495Z,98401.31
2023-03-26T16:32:37.196Z,98400.84
2023-03-26T16:35:13.743Z,98396.84
2023-03-26T16:38:09.444Z,98383.38
2023-03-26T16:40:58.295Z,98385.56
2023-03-26T16:44:28.386Z,98381.94
2023-03-26T16:47:14.534Z,98385.31
2023-03-26T16:50:33.016Z,98377.88
2023-03-26T16:53:54.144Z,98378.13
2023-03-26T16:57:38.701Z,98376.94
2023-03-26T17:01:00.108Z,98374.56
2023-03-26T17:03:54.996Z,98369.09
2023-03-26T17:07:02.063Z,98375.22
2023-03-26T17:10:20.109Z,98377.06
2023-03-26T17:13:23.424Z,98375.81
2023-03-26T17:16:30.196Z,98374.13
2023-03-26T17:19:25.895Z,98367.44
2023-03-26T17:22:16.822Z,98369.72
2023-03-26T17:25:36.747Z,98369.13
2023-03-26T17:28:43.615Z,98371.72
2023-03-26T17:32:00.098Z,98369.47
2023-03-26T17:34:51.722Z,98376.00
2023-03-26T17:37:23.723Z,98377.53
2023-03-26T17:39:51.425Z,98383.91
2023-03-26T17:42:36.158Z,98378.94
2023-03-26T17:45:20.554Z,98372.28
2023-03-26T17:48:02.528Z,98364.88
2023-03-26T17:50:47.762Z,98373.41
2023-03-26T17:53:32.339Z,98369.41
2023-03-26T17:56:05.744Z,98362.47
2023-03-26T17:58:48.128Z,98367.41
2023-03-26T18:01:39.133Z,98369.63
2023-03-26T18:04:15.889Z,98362.69
2023-03-26T18:07:28.960Z,98367.09
2023-03-26T18:11:14.491Z,98373.03
2023-03-26T18:14:07.713Z,98370.75
2023-03-26T18:16:44.357Z,98366.59
2023-03-26T18:19:19.346Z,98360.84
2023-03-26T18:21:59.798Z,98357.13
2023-03-26T18:24:36.745Z,98361.66
2023-03-26T18:27:17.902Z,98362.84
2023-03-26T18:30:03.061Z,98359.88
2023-03-26T18:32:41.110Z,98357.69
2023-03-26T18:35:24.309Z,98356.78
2023-03-26T18:38:00.175Z,98356.84
2023-03-26T18:40:41.563Z,98348.47
2023-03-26T18:43:32.555Z,98349.66
2023-03-26T18:46:05.215Z,98351.50
2023-03-26T18:48:34.898Z,98344.28
2023-03-26T18:51:07.016Z,98345.28
2023-03-26T18:53:59.633Z,98347.34
2023-03-26T18:56:41.716Z,98341.31
2023-03-26T18:59:32.737Z,98335.88
2023-03-26T19:02:10.595Z,98328.47
2023-03-26T19:04:46.093Z,98324.31
2023-03-26T19:07:26.804Z,98320.06
2023-03-26T19:09:57.014Z,98313.00
2023-03-26T19:12:33.288Z,98308.09
2023-03-26T19:15:13.509Z,98307.66
2023-03-26T19:17:56.035Z,98299.19
2023-03-26T19:20:30.765Z,98293.34
2023-03-26T19:23:00.471Z,98274.03
2023-03-26T19:25:44.384Z,98280.41
2023-03-26T19:28:41.105Z,98276.34
2023-03-26T19:31:27.328Z,98275.13
2023-03-26T19:34:40.329Z,98276.25
2023-03-26T19:37:30.289Z,98270.03
2023-03-26T19:40:30.312Z,98262.72
2023-03-26T19:42:59.385Z,98256.31
2023-03-26T19:45:30.116Z,98255.81
2023-03-26T19:48:14.447Z,98251.72
2023-03-26T19:51:05.615Z,98244.38
2023-03-26T19:53:37.541Z,98238.28
2023-03-26T19:56:15.422Z,98228.69
2023-03-26T19:58:46.070Z,98225.53
2023-03-26T20:01:32.143Z,98223.00
2023-03-26T20:04:06.506Z,98219.41
2023-03-26T20:06:43.325Z,98217.75
2023-03-26T20:09:13.885Z,98212.78
2023-03-26T20:11:43.756Z,98201.41
2023-03-26T20:14:26.463Z,98196.78
2023-03-26T20:16:55.542Z,98186.97
2023-03-26T20:19:25.353Z,98175.28
2023-03-26T20:21:53.372Z,98181.47
2023-03-26T20:24:24.677Z,98176.63
2023-03-26T20:26:53.378Z,98169.28
2023-03-26T20:29:21.527Z,98165.00
2023-03-26T20:31:49.615Z,98149.44
2023-03-26T20:34:24.699Z,98153.38
2023-03-26T20:37:01.119Z,98151.72
2023-03-26T20:39:29.459Z,98140.69
2023-03-26T20:41:57.268Z,98133.91
2023-03-26T20:44:27.450Z,98132.22
2023-03-26T20:46:57.507Z,98118.63
2023-03-26T20:49:29.456Z,98112.41
2023-03-26T20:51:59.759Z,98109.88
2023-03-26T20:54:30.517Z,98102.53
2023-03-26T20:56:59.261Z,98095.00
2023-03-26T20:59:28.622Z,98089.22
2023-03-26T21:01:59.617Z,98087.25
2023-03-26T21:04:28.010Z,98090.66
2023-03-26T21:07:07.147Z,98077.63
2023-03-26T21:09:49.624Z,98085.69
2023-03-26T21:13:27.452Z,98093.78
2023-03-26T21:15:55.668Z,98079.78
2023-03-26T21:18:23.958Z,98083.25
2023-03-26T21:21:39.145Z,98074.53
2023-03-26T21:24:19.585Z,98078.88
2023-03-26T21:27:10.376Z,98074.22
2023-03-26T21:29:38.736Z,98069.81
2023-03-26T21:32:07.122Z,98073.22
2023-03-26T21:34:37.705Z,98076.75
2023-03-26T21:37:08.180Z,98073.38
2023-03-26T21:39:36.518Z,98073.22
2023-03-26T21:42:06.007Z,98071.38
2023-03-26T21:44:35.281Z,98077.63
2023-03-26T21:47:10.243Z,98075.09
2023-03-26T21:49:38.797Z,98078.47
2023-03-26T21:52:07.430Z,98077.38
2023-03-26T21:54:37.232Z,98076.25
2023-03-26T21:57:13.732Z,98072.53
2023-03-26T22:00:18.571Z,98076.06
2023-03-26T22:02:59.826Z,98073.97
2023-03-26T22:05:54.196Z,98074.50
2023-03-26T22:08:40.143Z,98089.53
2023-03-26T22:11:11.437Z,98085.28
2023-03-26T22:13:39.833Z,98075.50
2023-03-26T22:16:10.970Z,98092.31
2023-03-26T22:18:38.800Z,98087.81
2023-03-26T22:21:07.305Z,98091.19
2023-03-26T22:23:36.690Z,98102.81
2023-03-26T22:26:06.586Z,98114.13
2023-03-26T22:28:35.538Z,98106.16
2023-03-26T22:31:09.225Z,98104.59
2023-03-26T22:33:40.258Z,98104.44
2023-03-26T22:36:23.310Z,98097.16
2023-03-26T22:38:54.473Z,98078.28
2023-03-26T22:41:23.290Z,98080.34
2023-03-26T22:43:53.768Z,98072.63
2023-03-26T22:46:23.175Z,98064.47
2023-03-26T22:48:51.740Z,98069.38
2023-03-26T22:51:23.074Z,98063.44
2023-03-26T22:53:51.092Z,98055.44
2023-03-26T22:56:19.093Z,98053.72
2023-03-26T22:58:48.234Z,98045.59
2023-03-26T23:01:23.179Z,98055.00
2023-03-26T23:03:52.864Z,98051.03
2023-03-26T23:06:21.793Z,98049.41
2023-03-26T23:08:50.040Z,98047.63
2023-03-26T23:11:22.353Z,98051.97
2023-03-26T23:13:51.420Z,98053.19
2023-03-26T23:16:21.791Z,98047.44
2023-03-26T23:18:50.474Z,98043.81
2023-03-26T23:21:23.200Z,98043.38
2023-03-26T23:23:54.259Z,98039.78
2023-03-26T23:26:22.299Z,98035.97
2023-03-26T23:28:51.956Z,98038.13
2023-03-26T23:31:19.899Z,98035.72
2023-03-26T23:33:50.566Z,98034.31
2023-03-26T23:36:23.828Z,98036.56
2023-03-26T23:38:53.805Z,98030.16
2023-03-26T23:41:25.584Z,98028.97
2023-03-26T23:43:55.738Z,98026.28
2023-03-26T23:46:35.024Z,98023.75
2023-03-26T23:49:03.923Z,98024.53
2023-03-26T23:51:32.906Z,98020.34
2023-03-26T23:54:01.700Z,98019.25
2023-03-26T23:56:30.472Z,98011.13
2023-03-26T23:58:59.560Z,98018.25
